Time;durP1;ratioP1;P1;durP2;ratioP2;P2;SDS_P1;SDS_P2;PMS_P1;PMS_P2;Temp;Humidity;BMP_temperature;BMP_pressure;BME280_temperature;BME280_humidity;BME280_pressure;Samples;Min_cycle;Max_cycle;Signal;HPM_P1;HPM_P2
2021/01/20 00:03:09;;;;;;;1.50;1.05;;;;;;;3.66;79.48;97124.47;9908968;30;20519;-75
2021/01/20 00:08:28;;;;;;;1.10;0.70;;;;;;;3.61;79.65;97119.94;9895262;30;20412;-75
2021/01/20 00:13:48;;;;;;;1.00;0.60;;;;;;;3.51;78.41;97114.28;9908624;30;20055;-75
2021/01/20 00:19:08;;;;;;;2.38;0.60;;;;;;;3.29;78.73;97102.13;9909501;30;20476;-75
2021/01/20 00:24:28;;;;;;;1.02;0.70;;;;;;;3.12;79.18;97111.03;9882419;30;20067;-75
2021/01/20 00:29:48;;;;;;;2.13;0.70;;;;;;;2.96;79.60;97106.88;9895761;30;20492;-75
2021/01/20 00:35:09;;;;;;;1.42;0.88;;;;;;;2.84;79.44;97089.28;9887379;30;20217;-75
2021/01/20 00:40:32;;;;;;;1.23;0.90;;;;;;;2.73;79.94;97086.97;9901839;30;20066;-75
2021/01/20 00:45:51;;;;;;;2.25;1.10;;;;;;;2.65;80.31;97086.25;9914861;30;20120;-75
2021/01/20 00:51:13;;;;;;;1.20;0.60;;;;;;;2.57;80.43;97078.75;9888348;30;20541;-75
2021/01/20 00:56:33;;;;;;;1.00;0.80;;;;;;;2.52;80.36;97076.94;9888523;30;20066;-75
2021/01/20 01:01:57;;;;;;;1.90;0.68;;;;;;;2.53;80.04;97070.13;9900731;30;20519;-75
2021/01/20 01:07:25;;;;;;;0.80;0.70;;;;;;;2.55;79.89;97067.56;9878403;30;20477;-75
2021/01/20 01:12:45;;;;;;;1.30;0.82;;;;;;;2.54;80.49;97049.56;9901153;30;20067;-75
2021/01/20 01:18:05;;;;;;;1.48;0.90;;;;;;;2.52;79.93;97052.16;9887678;30;20523;-74
2021/01/20 01:23:25;;;;;;;1.08;0.85;;;;;;;2.49;79.46;97061.50;9875060;30;20467;-75
2021/01/20 01:28:46;;;;;;;1.83;0.93;;;;;;;2.52;80.01;97059.69;9887093;30;20557;-75
2021/01/20 01:34:24;;;;;;;2.80;0.93;;;;;;;2.50;79.93;97070.50;9900133;30;20067;-75
2021/01/20 01:39:47;;;;;;;1.40;0.90;;;;;;;2.45;80.01;97063.91;9899595;30;20627;-75
2021/01/20 01:45:08;;;;;;;1.30;0.80;;;;;;;2.46;80.31;97065.38;9898874;29;20116;-75
2021/01/20 01:50:28;;;;;;;2.13;0.90;;;;;;;2.49;79.94;97064.25;9886380;30;20151;-75
2021/01/20 01:55:48;;;;;;;2.15;0.98;;;;;;;2.49;79.73;97071.78;9899062;30;20059;-75
2021/01/20 02:01:31;;;;;;;2.13;1.05;;;;;;;2.45;80.01;97057.69;9898418;30;20400;-75
2021/01/20 02:06:55;;;;;;;1.52;0.93;;;;;;;2.41;79.53;97066.31;9885666;30;20067;-75
2021/01/20 02:13:26;;;;;;;3.20;1.60;;;;;;;2.44;80.00;97073.47;9877065;30;20481;-75
2021/01/20 02:19:09;;;;;;;2.15;1.38;;;;;;;2.50;79.98;97038.16;9912318;30;20067;-75
2021/01/20 02:24:59;;;;;;;2.10;1.52;;;;;;;2.46;79.52;97040.59;9885388;30;20151;-75
2021/01/20 02:30:46;;;;;;;2.42;1.85;;;;;;;2.39;79.60;97071.66;9887328;30;20070;-75
2021/01/20 02:36:16;;;;;;;2.45;2.00;;;;;;;2.35;80.49;97043.75;9909891;30;20097;-75
2021/01/20 02:41:46;;;;;;;2.67;1.90;;;;;;;2.36;80.15;97047.25;9885978;30;20474;-75
2021/01/20 02:47:19;;;;;;;2.40;1.80;;;;;;;2.37;79.01;97043.19;9899728;30;20396;-75
2021/01/20 02:53:05;;;;;;;2.65;1.80;;;;;;;2.35;79.89;97046.50;9897808;30;20063;-75
2021/01/20 02:58:51;;;;;;;3.35;2.25;;;;;;;2.39;79.55;97057.88;9882765;30;20098;-75
2021/01/20 03:04:34;;;;;;;2.92;2.40;;;;;;;2.45;79.76;97058.41;9899534;30;20070;-75
2021/01/20 03:09:54;;;;;;;3.65;2.67;;;;;;;2.38;79.15;97078.44;9884142;30;20098;-75
2021/01/20 03:15:26;;;;;;;3.00;2.70;;;;;;;2.35;79.71;97071.31;9884913;30;20170;-75
2021/01/20 03:20:45;;;;;;;3.13;2.60;;;;;;;2.30;79.27;97077.72;9885912;30;20471;-75
2021/01/20 03:26:05;;;;;;;4.65;2.97;;;;;;;2.28;79.88;97064.50;9883689;30;20541;-75
2021/01/20 03:31:25;;;;;;;3.05;2.72;;;;;;;2.29;79.71;97060.47;9884166;30;20094;-75
2021/01/20 03:36:45;;;;;;;3.95;3.28;;;;;;;2.30;78.65;97052.94;9895939;30;20075;-75
2021/01/20 03:42:05;;;;;;;3.35;2.80;;;;;;;2.33;78.68;97043.59;9895910;30;20419;-75
2021/01/20 03:47:24;;;;;;;3.28;2.70;;;;;;;2.36;78.79;97036.94;9909144;30;20081;-75
2021/01/20 03:52:44;;;;;;;3.88;2.65;;;;;;;2.42;78.11;97036.75;9909088;30;20063;-75
2021/01/20 03:58:04;;;;;;;4.38;3.55;;;;;;;2.41;78.40;97041.50;9895758;30;20059;-75
2021/01/20 04:03:24;;;;;;;3.85;3.05;;;;;;;2.41;77.70;97038.75;9895221;30;20096;-74
2021/01/20 04:09:05;;;;;;;3.80;2.97;;;;;;;2.43;78.07;97038.97;9901599;29;20101;-75
2021/01/20 04:14:25;;;;;;;3.50;2.80;;;;;;;2.42;77.45;97043.00;9902530;30;20067;-75
2021/01/20 04:19:45;;;;;;;4.43;2.72;;;;;;;2.38;77.11;97020.59;9903159;30;20066;-75
2021/01/20 04:25:05;;;;;;;4.63;2.42;;;;;;;2.35;76.96;97007.94;9915367;30;20090;-75
2021/01/20 04:30:26;;;;;;;3.55;2.40;;;;;;;2.36;77.23;97003.91;9901741;30;20063;-75
2021/01/20 04:35:45;;;;;;;3.33;2.47;;;;;;;2.41;76.32;97018.75;9888942;30;20070;-75
2021/01/20 04:41:05;;;;;;;3.75;2.90;;;;;;;2.42;76.85;97020.97;9888787;30;20067;-76
2021/01/20 04:46:25;;;;;;;4.15;3.00;;;;;;;2.33;76.61;97027.06;9925513;29;20127;-75
2021/01/20 04:51:47;;;;;;;4.80;2.80;;;;;;;2.30;76.25;97025.41;9938419;29;20111;-75
2021/01/20 04:57:06;;;;;;;3.33;2.70;;;;;;;2.23;75.90;97018.66;9938155;29;20443;-75
2021/01/20 05:02:27;;;;;;;5.07;2.83;;;;;;;2.17;75.97;97020.13;9923664;29;20067;-74
2021/01/20 05:07:48;;;;;;;4.72;3.03;;;;;;;2.12;75.92;97029.31;9937717;29;20070;-75
2021/01/20 05:13:28;;;;;;;6.47;2.90;;;;;;;2.10;76.39;97031.88;9902406;29;20069;-75
2021/01/20 05:18:48;;;;;;;3.97;2.53;;;;;;;2.10;76.23;97035.38;9900525;29;20142;-75
2021/01/20 05:24:24;;;;;;;3.67;2.28;;;;;;;2.16;75.68;97029.69;9892161;29;20409;-75
2021/01/20 05:30:00;;;;;;;3.75;2.25;;;;;;;2.18;75.15;97040.88;9950648;29;20137;-75
2021/01/20 05:35:20;;;;;;;2.70;2.20;;;;;;;2.23;75.18;97026.91;9923883;29;20059;-75
2021/01/20 05:40:40;;;;;;;2.65;2.08;;;;;;;2.28;74.39;97030.75;9902130;30;20063;-75
2021/01/20 05:46:00;;;;;;;3.28;2.05;;;;;;;2.26;74.77;97038.81;9889300;29;20094;-75
2021/01/20 05:51:21;;;;;;;3.45;1.92;;;;;;;2.19;74.80;97036.81;9923858;29;20183;-75
2021/01/20 05:56:40;;;;;;;2.65;1.58;;;;;;;2.17;74.88;97042.16;9896062;29;20067;-75
2021/01/20 06:02:00;;;;;;;1.77;1.45;;;;;;;2.18;74.69;97040.88;9949293;29;20070;-75
2021/01/20 06:07:20;;;;;;;2.53;1.55;;;;;;;2.14;74.94;97046.03;9949072;29;20530;-75
2021/01/20 06:12:40;;;;;;;2.35;1.50;;;;;;;2.07;74.94;97049.53;9949239;29;20448;-75
2021/01/20 06:17:59;;;;;;;2.72;1.30;;;;;;;2.08;74.66;97051.00;9935187;29;20137;-75
2021/01/20 06:23:25;;;;;;;5.30;1.70;;;;;;;2.04;74.97;97054.13;9897756;29;20153;-75
2021/01/20 06:28:48;;;;;;;2.00;1.10;;;;;;;2.01;73.81;97047.69;9949043;29;20058;-75
2021/01/20 06:34:08;;;;;;;3.05;1.33;;;;;;;2.01;74.32;97049.72;9897224;29;20204;-75
2021/01/20 06:39:31;;;;;;;4.13;2.17;;;;;;;2.08;74.05;97045.47;9948963;29;20058;-76
2021/01/20 06:45:17;;;;;;;2.47;1.23;;;;;;;2.19;73.17;97056.81;9947933;29;20141;-77
2021/01/20 06:51:15;;;;;;;3.60;1.48;;;;;;;2.28;73.22;97052.75;9934555;29;20069;-76
2021/01/20 06:56:49;;;;;;;3.13;1.77;;;;;;;2.39;72.32;97051.63;9922217;29;20071;-76
2021/01/20 07:02:09;;;;;;;3.30;1.40;;;;;;;2.69;72.19;97061.78;9933590;29;20070;-76
2021/01/20 07:07:52;;;;;;;2.60;1.20;;;;;;;3.08;72.03;97066.53;9934825;29;20598;-76
2021/01/20 07:13:16;;;;;;;1.83;0.82;;;;;;;4.32;68.47;97060.19;9948283;29;20067;-76
2021/01/20 07:18:41;;;;;;;4.18;1.40;;;;;;;5.65;67.56;97053.81;9933918;29;20130;-76
2021/01/20 07:24:01;;;;;;;2.50;1.60;;;;;;;6.04;65.45;97060.19;9934172;29;20098;-76
2021/01/20 07:29:27;;;;;;;2.30;1.27;;;;;;;6.33;66.63;97057.44;9921174;29;20066;-76
2021/01/20 07:34:47;;;;;;;3.20;1.00;;;;;;;7.19;61.68;97069.75;9947091;29;20149;-76
2021/01/20 07:40:07;;;;;;;1.40;0.70;;;;;;;7.93;64.87;97078.97;9920417;29;20071;-76
2021/01/20 07:45:38;;;;;;;1.52;0.80;;;;;;;8.58;63.17;97080.44;9940362;29;20067;-77
2021/01/20 07:50:57;;;;;;;2.13;0.70;;;;;;;9.83;56.40;97065.81;9954076;29;20066;-74
2021/01/20 07:56:22;;;;;;;3.72;1.38;;;;;;;13.38;61.30;97088.72;9927728;29;20067;-73
2021/01/20 08:01:42;;;;;;;1.90;1.20;;;;;;;15.30;49.24;97086.31;9941217;29;20207;-75
2021/01/20 08:07:02;;;;;;;1.98;1.02;;;;;;;17.21;43.19;97076.09;9953641;29;20071;-75
2021/01/20 08:12:27;;;;;;;1.60;0.98;;;;;;;18.42;47.61;97075.31;9940153;29;20063;-75
2021/01/20 08:17:48;;;;;;;1.67;0.90;;;;;;;19.77;43.63;97073.59;9925551;29;20062;-76
2021/01/20 08:23:53;;;;;;;1.35;0.88;;;;;;;19.81;40.84;97075.78;9914908;29;20069;-76
2021/01/20 08:29:13;;;;;;;2.08;1.10;;;;;;;20.69;34.05;97090.25;9894267;29;20083;-75
2021/01/20 08:34:37;;;;;;;2.03;1.13;;;;;;;22.53;36.00;97094.25;9939567;29;20067;-73
2021/01/20 08:39:59;;;;;;;1.98;1.00;;;;;;;24.87;27.62;97082.78;9938580;29;20066;-74
2021/01/20 08:45:19;;;;;;;1.98;1.02;;;;;;;26.64;26.43;97076.69;9939151;29;20123;-76
2021/01/20 08:50:44;;;;;;;1.10;0.82;;;;;;;26.98;25.19;97078.56;9938499;29;20058;-76
2021/01/20 08:56:03;;;;;;;1.42;0.98;;;;;;;29.50;19.37;97100.59;9937403;29;20066;-76
2021/01/20 09:01:28;;;;;;;1.92;0.80;;;;;;;30.94;18.16;97082.56;9938293;29;20066;-76
2021/01/20 09:06:48;;;;;;;1.37;1.17;;;;;;;30.97;16.70;97083.94;9937925;29;20209;-75
2021/01/20 09:12:08;;;;;;;1.80;1.08;;;;;;;31.18;16.40;97084.16;9951633;29;20518;-76
2021/01/20 09:17:27;;;;;;;2.13;0.90;;;;;;;30.58;16.10;97092.72;9937978;29;20096;-76
2021/01/20 09:22:48;;;;;;;3.13;1.10;;;;;;;32.44;15.18;97087.28;9924323;29;20475;-76
2021/01/20 09:28:08;;;;;;;2.55;1.10;;;;;;;33.83;13.75;97097.28;9950456;29;20058;-73
2021/01/20 09:33:28;;;;;;;2.10;1.13;;;;;;;34.01;13.43;97101.75;9950983;29;20063;-77
2021/01/20 09:38:48;;;;;;;6.72;1.33;;;;;;;35.00;12.31;97098.00;9936535;29;20140;-83
2021/01/20 09:44:08;;;;;;;5.28;1.50;;;;;;;35.29;11.72;97096.84;9949971;29;20058;-75
2021/01/20 09:49:28;;;;;;;193.85;13.18;;;;;;;35.40;11.86;97092.03;9950181;29;20062;-75
2021/01/20 09:54:48;;;;;;;4.45;1.65;;;;;;;34.76;11.68;97081.56;9949848;29;20059;-74
2021/01/20 10:00:09;;;;;;;3.72;1.63;;;;;;;31.13;13.09;97080.66;9949283;29;20058;-75
2021/01/20 10:05:30;;;;;;;2.50;1.50;;;;;;;26.13;16.30;97080.47;9936499;29;20585;-76
2021/01/20 10:10:53;;;;;;;4.13;1.50;;;;;;;24.67;17.56;97066.38;9949428;29;20073;-75
2021/01/20 10:16:12;;;;;;;;;;;;;;;26.22;18.27;97055.41;9949822;29;20058;-75
2021/01/20 10:21:32;;;;;;;4.32;1.50;;;;;;;26.66;16.80;97062.34;9947999;29;19955;-88
2021/01/20 10:26:55;;;;;;;3.15;1.70;;;;;;;23.85;18.56;97071.81;9909208;29;20067;-76
2021/01/20 10:32:14;;;;;;;13.63;2.85;;;;;;;22.12;20.25;97046.94;9947358;29;20063;-83
2021/01/20 10:37:38;;;;;;;7.20;2.28;;;;;;;20.02;21.50;97037.97;9910067;29;20450;-94
2021/01/20 10:43:08;;;;;;;4.57;2.50;;;;;;;19.61;22.50;97031.50;9911948;29;20069;-90
2021/01/20 10:48:28;;;;;;;68.47;7.43;;;;;;;18.11;23.29;97022.25;9908041;29;20062;-89
2021/01/20 10:53:48;;;;;;;155.80;13.95;;;;;;;16.02;25.63;97031.31;9895545;29;20070;-87
2021/01/20 10:59:42;;;;;;;7.00;2.28;;;;;;;14.64;26.29;97020.50;10589026;24;20063;-79
2021/01/20 11:05:55;;;;;;;4.43;2.00;;;;;;;13.69;27.48;97021.44;10343467;24;20063;-80
2021/01/20 11:11:25;;;;;;;3.58;2.08;;;;;;;13.01;29.04;97016.22;9860365;30;20080;-81
2021/01/20 11:17:39;;;;;;;4.90;2.30;;;;;;;12.41;30.53;97015.53;9979707;24;20090;-84
2021/01/20 11:24:27;;;;;;;14.45;3.28;;;;;;;12.05;31.60;97017.25;9938560;29;20061;-85
2021/01/20 11:36:14;;;;;;;7.40;2.40;;;;;;;11.70;35.68;97007.09;10457752;24;20058;-86
2021/01/20 11:43:09;;;;;;;;;;;;;;;;;;;;;
2021/01/20 11:49:19;;;;;;;6.47;1.92;;;;;;;12.87;34.64;97010.72;9855437;30;20173;-86
2021/01/20 12:01:33;;;;;;;3.47;2.00;;;;;;;12.69;35.43;97004.97;10005708;24;20212;-75
2021/01/20 12:06:52;;;;;;;4.07;1.90;;;;;;;12.65;35.23;96993.59;9896451;30;20075;-76
2021/01/20 12:12:14;;;;;;;13.43;2.72;;;;;;;12.77;35.18;96982.94;9910947;30;20495;-76
2021/01/20 12:17:34;;;;;;;6.45;2.33;;;;;;;12.95;35.35;96982.34;9908894;30;20059;-76
2021/01/20 12:22:54;;;;;;;50.47;5.60;;;;;;;13.09;35.08;96974.59;9909360;30;20055;-76
2021/01/20 12:28:14;;;;;;;13.18;3.35;;;;;;;13.22;35.20;96953.47;9910559;29;20067;-76
2021/01/20 12:33:34;;;;;;;12.73;2.75;;;;;;;13.29;35.46;96947.50;9915959;30;20070;-76
2021/01/20 12:38:54;;;;;;;4.45;2.28;;;;;;;13.12;35.31;96939.69;9915122;30;20112;-76
2021/01/20 12:44:13;;;;;;;4.65;1.73;;;;;;;13.09;35.52;96940.97;9915318;30;20070;-76
2021/01/20 12:49:33;;;;;;;5.60;1.90;;;;;;;12.85;35.60;96938.53;9915326;30;20070;-77
2021/01/20 12:54:53;;;;;;;3.85;1.60;;;;;;;12.74;35.78;96933.81;9915191;30;20488;-76
2021/01/20 13:00:14;;;;;;;4.22;2.08;;;;;;;12.69;36.20;96923.03;9918777;29;20402;-77
2021/01/20 13:05:33;;;;;;;7.55;2.00;;;;;;;12.56;36.07;96930.88;9926654;29;20067;-76
2021/01/20 13:10:54;;;;;;;6.80;2.67;;;;;;;12.30;36.56;96926.84;9951616;29;20066;-76
2021/01/20 13:16:13;;;;;;;4.35;2.10;;;;;;;12.02;36.71;96912.22;9952271;29;20406;-76
2021/01/20 13:21:34;;;;;;;7.43;1.90;;;;;;;11.98;36.89;96918.34;9937859;29;20120;-76
2021/01/20 13:26:53;;;;;;;5.00;1.70;;;;;;;11.96;36.76;96914.69;9951367;29;20063;-76
2021/01/20 13:32:13;;;;;;;7.25;1.88;;;;;;;11.79;37.09;96913.19;9951041;29;20063;-77
2021/01/20 13:37:33;;;;;;;6.55;2.40;;;;;;;11.71;37.75;96919.09;9951963;29;20066;-76
2021/01/20 13:42:53;;;;;;;5.82;2.30;;;;;;;11.49;37.97;96911.66;9920150;29;20426;-76
2021/01/20 13:48:13;;;;;;;7.00;3.33;;;;;;;11.29;38.02;96914.13;9899658;29;20063;-76
2021/01/20 13:53:33;;;;;;;5.30;2.70;;;;;;;11.00;38.31;96912.69;9928461;29;20518;-76
2021/01/20 13:58:55;;;;;;;4.65;2.03;;;;;;;10.66;38.82;96902.47;9926557;29;20064;-77
2021/01/20 14:04:15;;;;;;;3.92;2.13;;;;;;;10.28;39.76;96899.75;9927576;29;20090;-77
2021/01/20 14:09:37;;;;;;;6.25;2.08;;;;;;;10.10;39.39;96898.00;9922042;24;20062;-77
2021/01/20 14:14:57;;;;;;;4.07;2.17;;;;;;;9.93;39.91;96891.50;9970099;29;20105;-76
2021/01/20 14:20:16;;;;;;;4.45;2.42;;;;;;;9.83;40.96;96882.56;9972880;29;20462;-77
2021/01/20 14:25:36;;;;;;;4.10;2.53;;;;;;;9.69;40.56;96882.50;9965167;29;20077;-76
2021/01/20 14:30:56;;;;;;;232.85;26.45;;;;;;;9.51;40.58;96881.47;9974825;29;20074;-77
2021/01/20 14:36:16;;;;;;;10.45;2.80;;;;;;;9.41;41.22;96876.03;9974650;29;20062;-77
2021/01/20 14:41:35;;;;;;;6.57;3.25;;;;;;;9.17;42.21;96871.84;9985295;29;20066;-77
2021/01/20 14:46:56;;;;;;;12.65;2.95;;;;;;;8.93;41.25;96864.81;9985497;29;20066;-77
2021/01/20 14:52:15;;;;;;;12.18;4.13;;;;;;;8.80;43.46;96866.16;9971226;29;20125;-78
2021/01/20 14:57:35;;;;;;;6.53;3.25;;;;;;;8.64;43.78;96865.19;9973000;29;20069;-78
2021/01/20 15:02:55;;;;;;;6.28;2.75;;;;;;;8.53;43.39;96861.06;9971962;29;20150;-77
2021/01/20 15:08:15;;;;;;;10.40;3.05;;;;;;;8.38;44.33;96855.94;9985276;29;20066;-78
2021/01/20 15:13:35;;;;;;;4.05;2.40;;;;;;;8.28;43.89;96865.09;9932379;29;20069;-78
2021/01/20 15:18:56;;;;;;;13.50;3.40;;;;;;;8.10;44.90;96855.59;9948302;29;20143;-76
2021/01/20 15:24:15;;;;;;;16.98;3.72;;;;;;;8.08;45.37;96851.97;9943266;29;20058;-76
2021/01/20 15:29:35;;;;;;;4.78;2.50;;;;;;;8.03;44.02;96867.69;9945075;29;20070;-78
2021/01/20 15:34:59;;;;;;;6.13;2.47;;;;;;;7.94;44.33;96862.94;9955624;29;20059;-81
2021/01/20 15:40:35;;;;;;;6.43;2.35;;;;;;;7.90;44.70;96854.34;9944366;29;20537;-80
2021/01/20 15:46:00;;;;;;;5.30;2.33;;;;;;;7.84;44.92;96851.19;9937830;29;20070;-81
2021/01/20 15:51:42;;;;;;;3.60;2.20;;;;;;;7.79;45.20;96852.97;9930316;29;20511;-78
2021/01/20 15:57:02;;;;;;;5.57;2.47;;;;;;;7.70;45.26;96848.94;9950712;29;20070;-77
2021/01/20 16:02:22;;;;;;;7.65;2.90;;;;;;;7.72;45.33;96849.09;9945096;29;20096;-77
2021/01/20 16:07:41;;;;;;;3.83;2.10;;;;;;;7.71;45.86;96844.13;9951404;29;20071;-76
2021/01/20 16:13:03;;;;;;;5.70;2.20;;;;;;;7.68;46.34;96839.75;9980832;29;20074;-78
2021/01/20 16:18:23;;;;;;;4.45;1.95;;;;;;;7.62;45.78;96831.75;9989858;29;20058;-77
2021/01/20 16:23:42;;;;;;;5.63;2.20;;;;;;;7.53;46.29;96840.91;9975642;29;20062;-76
2021/01/20 16:29:03;;;;;;;3.97;2.35;;;;;;;7.41;46.62;96834.56;9993054;29;20094;-76
2021/01/20 16:34:23;;;;;;;4.20;2.10;;;;;;;7.36;46.06;96841.91;9963758;29;20531;-76
2021/01/20 16:39:43;;;;;;;3.72;2.05;;;;;;;7.35;46.39;96831.41;9988535;29;20115;-75
2021/01/20 16:45:05;;;;;;;6.88;3.10;;;;;;;7.26;46.95;96823.88;9884850;29;20063;-78
2021/01/20 16:50:25;;;;;;;6.65;3.53;;;;;;;7.21;47.17;96816.59;9911237;30;20067;-76
2021/01/20 16:55:45;;;;;;;6.43;3.67;;;;;;;7.09;46.95;96828.34;9908992;30;20070;-77
2021/01/20 17:01:07;;;;;;;6.30;3.85;;;;;;;7.09;46.93;96825.56;9908610;30;20511;-74
2021/01/20 17:06:27;;;;;;;8.73;4.18;;;;;;;7.08;47.67;96831.72;9883690;30;20059;-76
2021/01/20 17:11:50;;;;;;;7.00;3.33;;;;;;;7.03;47.52;96811.28;9906580;29;20098;-76
2021/01/20 17:17:10;;;;;;;4.90;2.95;;;;;;;7.03;47.39;96808.50;9935904;29;20074;-77
2021/01/20 17:22:30;;;;;;;4.88;3.13;;;;;;;6.94;47.98;96806.53;9953038;29;20138;-77
2021/01/20 17:27:50;;;;;;;4.88;3.00;;;;;;;6.91;47.69;96821.59;9949479;29;20067;-77
2021/01/20 17:39:30;;;;;;;4.72;2.97;;;;;;;6.92;47.57;96809.16;11163195;24;20057;-75
2021/01/20 17:44:51;;;;;;;5.22;2.38;;;;;;;6.93;47.78;96802.28;9950302;29;20058;-77
2021/01/20 17:50:11;;;;;;;4.78;2.53;;;;;;;6.91;47.95;96798.66;9978296;29;20060;-80
2021/01/20 17:55:32;;;;;;;3.58;2.28;;;;;;;6.90;47.76;96806.25;9992451;29;20136;-80
2021/01/20 18:00:52;;;;;;;6.47;2.42;;;;;;;6.89;48.18;96794.44;9996830;29;20126;-75
2021/01/20 18:06:13;;;;;;;7.88;2.95;;;;;;;6.90;47.59;96800.72;9985740;29;20066;-77
2021/01/20 18:11:33;;;;;;;6.57;3.53;;;;;;;6.91;47.76;96802.16;9985571;29;20465;-76
2021/01/20 18:16:54;;;;;;;6.07;3.30;;;;;;;6.98;47.88;96806.06;9985568;29;20073;-76
2021/01/20 18:22:14;;;;;;;7.32;3.80;;;;;;;6.99;48.19;96807.53;9985505;29;20058;-76
2021/01/20 18:27:34;;;;;;;8.45;3.67;;;;;;;6.96;47.88;96795.56;9970088;29;20065;-76
2021/01/20 18:52:16;;;;;;;10.20;5.25;;;;;;;7.01;48.22;96777.84;9907452;29;20040;-81
2021/01/20 18:57:46;;;;;;;9.32;4.65;;;;;;;6.99;47.96;96766.63;10836670;24;20075;-80
2021/01/20 19:03:18;;;;;;;7.55;4.20;;;;;;;6.99;48.07;96757.59;9949791;24;20566;-80
2021/01/20 19:08:54;;;;;;;8.73;4.93;;;;;;;6.99;48.21;96752.75;9910213;29;20063;-80
2021/01/20 19:14:16;;;;;;;9.88;4.72;;;;;;;7.03;47.96;96753.00;10752895;24;20069;-79
2021/01/20 19:19:36;;;;;;;8.07;5.10;;;;;;;6.99;47.97;96741.66;9971343;24;20069;-78
2021/01/20 19:24:58;;;;;;;8.95;4.47;;;;;;;7.02;47.78;96743.25;9967090;29;20082;-80
2021/01/20 19:30:20;;;;;;;5.75;3.08;;;;;;;7.01;48.08;96733.47;9972039;29;20070;-78
2021/01/20 19:35:45;;;;;;;9.25;5.78;;;;;;;6.97;47.98;96715.84;10034323;29;20072;-80
2021/01/20 19:41:18;;;;;;;8.00;4.50;;;;;;;6.87;48.20;96713.13;10018940;29;20122;-79
2021/01/20 20:16:07;;;;;;;5.55;3.33;;;;;;;6.52;49.50;96682.41;6776196;24;20081;-80
2021/01/20 20:21:27;;;;;;;5.78;3.00;;;;;;;6.55;49.08;96679.19;9906672;29;20141;-76
2021/01/20 20:26:47;;;;;;;4.95;2.95;;;;;;;6.57;49.47;96671.00;9931726;29;20463;-76
2021/01/20 20:32:07;;;;;;;8.77;4.25;;;;;;;6.58;49.53;96672.47;9945885;29;20083;-76
2021/01/20 20:37:27;;;;;;;6.57;3.20;;;;;;;6.48;49.76;96674.56;9946211;29;20074;-76
2021/01/20 20:42:47;;;;;;;5.22;3.03;;;;;;;6.36;50.19;96668.22;9947427;29;20069;-77
2021/01/20 20:48:07;;;;;;;6.22;3.67;;;;;;;6.25;50.27;96674.41;9933466;29;20063;-78
2021/01/20 20:53:27;;;;;;;5.70;2.97;;;;;;;6.15;50.59;96673.72;9968458;29;20094;-76
2021/01/20 20:58:47;;;;;;;6.20;3.28;;;;;;;6.08;50.98;96680.16;9938329;29;20063;-78
2021/01/20 21:04:07;;;;;;;6.97;3.35;;;;;;;5.96;51.11;96675.25;9936998;29;20074;-77
2021/01/20 21:09:26;;;;;;;6.60;3.40;;;;;;;5.87;51.19;96664.91;9923955;29;20495;-79
2021/01/20 21:14:46;;;;;;;4.95;2.95;;;;;;;5.79;51.30;96667.16;9950836;29;20066;-78
2021/01/20 21:20:06;;;;;;;5.18;3.20;;;;;;;5.78;51.47;96670.50;9952209;29;20063;-77
2021/01/20 21:25:26;;;;;;;6.07;3.50;;;;;;;5.79;52.01;96656.09;9950160;29;20062;-76
2021/01/20 21:30:46;;;;;;;7.32;4.05;;;;;;;5.77;51.75;96655.94;10439455;24;20368;-80
2021/01/20 21:36:07;;;;;;;8.00;3.53;;;;;;;5.68;51.56;96659.44;9911517;29;20063;-79
2021/01/20 21:41:26;;;;;;;8.20;3.97;;;;;;;5.54;51.65;96661.25;9948964;29;20631;-78
2021/01/20 21:46:47;;;;;;;7.28;4.00;;;;;;;5.43;52.81;96652.25;9925213;29;20059;-80
2021/01/20 21:52:06;;;;;;;9.18;5.05;;;;;;;5.29;53.00;96653.28;9951017;29;20092;-79
2021/01/20 21:57:26;;;;;;;9.00;4.93;;;;;;;5.13;53.72;96655.66;9951631;29;20105;-79
2021/01/20 22:02:46;;;;;;;6.45;3.63;;;;;;;5.02;53.20;96668.06;9939189;29;20058;-80
2021/01/20 22:08:06;;;;;;;9.55;4.30;;;;;;;5.05;53.41;96657.84;9951099;29;20063;-77
2021/01/20 22:13:26;;;;;;;8.40;4.15;;;;;;;5.05;53.13;96658.59;9950468;29;20062;-76
2021/01/20 22:18:45;;;;;;;6.53;3.80;;;;;;;5.04;53.41;96650.88;9922806;29;20074;-76
2021/01/20 22:24:06;;;;;;;7.53;4.30;;;;;;;5.05;53.51;96636.47;9922862;29;20596;-76
2021/01/20 22:29:29;;;;;;;8.30;4.80;;;;;;;5.00;53.37;96637.47;9912085;29;20066;-76
2021/01/20 22:34:48;;;;;;;7.78;4.30;;;;;;;4.98;54.72;96633.84;9923036;29;20419;-76
2021/01/20 22:40:09;;;;;;;7.38;4.30;;;;;;;4.86;53.64;96626.13;9922679;29;20063;-76
2021/01/20 22:45:29;;;;;;;8.27;4.55;;;;;;;4.80;53.99;96634.00;9935692;29;20066;-76
2021/01/20 22:50:48;;;;;;;20.65;9.23;;;;;;;4.68;53.55;96635.91;9922322;29;20483;-76
2021/01/20 22:56:10;;;;;;;115.53;78.00;;;;;;;4.58;54.71;96624.84;9922779;29;20058;-76
2021/01/20 23:01:31;;;;;;;159.52;80.68;;;;;;;4.43;54.78;96625.09;9935149;29;20062;-76
2021/01/20 23:06:51;;;;;;;138.25;58.85;;;;;;;4.44;55.18;96623.81;9947924;29;20066;-76
2021/01/20 23:12:11;;;;;;;279.92;108.45;;;;;;;4.47;55.73;96608.84;9947251;29;20058;-77
2021/01/20 23:17:31;;;;;;;41.83;17.98;;;;;;;4.28;54.75;96604.03;9933984;29;20058;-76
2021/01/20 23:22:52;;;;;;;110.20;34.33;;;;;;;4.08;55.59;96596.28;9909430;29;20482;-76
2021/01/20 23:28:11;;;;;;;553.30;235.07;;;;;;;3.90;55.18;96598.44;9895923;29;20073;-76
2021/01/20 23:33:31;;;;;;;129.57;43.97;;;;;;;3.79;56.14;96593.47;9947028;29;20066;-76
2021/01/20 23:38:51;;;;;;;116.35;37.63;;;;;;;3.69;55.56;96610.00;9920849;29;20518;-76
2021/01/20 23:44:11;;;;;;;45.17;16.75;;;;;;;3.51;55.32;96606.56;9921610;29;20503;-76
2021/01/20 23:49:32;;;;;;;40.55;15.43;;;;;;;3.37;56.33;96606.22;9947467;29;20059;-76
2021/01/20 23:54:52;;;;;;;19.77;9.60;;;;;;;3.33;56.45;96613.47;9947491;29;20403;-76
